PWSweather.com
Personal Weather Stations
Station Observations
CARNOUSTIE
Pambride, CarnoustieGB DD7 6DY

PambrideCarnoustieGB DD7 6DY

Lat: 56.50889, Lon: -2.7051

Elevation: 105

Station Type: Oregon Scientific WMR200

www.carnoustieweather.co.uk

High Low Average
Temperature 79.9°F26.6°C 59.0°F15.0°C 67.6°F19.8°C
Dew Point 63.3°F17.4°C 55.9°F13.3°C 59.2°F15.1°C
Winds 5.8 mph 9.3 kmh Calm Calm 3.0 mph SE4.8 kmh SE
Wind Gusts 6.9 mph11.1 kmh 2.3 mph3.7 kmh 4.0 mph6.4 kmh
Humidity 91% 57% 75%
Pressure 30.21 in1023.0 mb 30.18 in1022.0 mb -
Precipitation 0.00 in0.0 mm - -
Hour Temp Dew Point Humidity Winds Wind Gusts Pressure Precip Precip Rate Daily Precip Total
07:40 AM 60.4°F15.8°C 57.8°F14.3°C 91% 2.3 mph ESE3.7 kmh ESE 2.3 mph3.7 kmh 30.21 in1023.0 mb - 0.00 in0.0 mm 0.00 in0.0 mm
07:50 AM 60.6°F15.9°C 58.0°F14.4°C 91% 2.3 mph S3.7 kmh S 2.3 mph3.7 kmh 30.21 in1023.0 mb - 0.00 in0.0 mm 0.00 in0.0 mm
08:00 AM 60.8°F16.0°C 58.2°F14.6°C 91% Calm Calm 2.3 mph3.7 kmh 30.21 in1023.0 mb - 0.00 in0.0 mm 0.00 in0.0 mm
08:10 AM 61.0°F16.1°C 58.3°F14.6°C 91% 2.3 mph SSE3.7 kmh SSE 2.3 mph3.7 kmh 30.21 in1023.0 mb - 0.00 in0.0 mm 0.00 in0.0 mm
08:20 AM 61.3°F16.3°C 58.7°F14.8°C 91% 2.3 mph SSW3.7 kmh SSW 3.5 mph5.6 kmh 30.21 in1023.0 mb - 0.00 in0.0 mm 0.00 in0.0 mm
08:30 AM 61.0°F16.1°C 58.0°F14.4°C 90% 2.3 mph SW3.7 kmh SW 2.3 mph3.7 kmh 30.21 in1023.0 mb - 0.00 in0.0 mm 0.00 in0.0 mm
08:40 AM 61.4°F16.3°C 58.8°F14.9°C 91% 2.3 mph S3.7 kmh S 3.5 mph5.6 kmh 30.21 in1023.0 mb - 0.00 in0.0 mm 0.00 in0.0 mm
08:50 AM 61.9°F16.6°C 58.9°F14.9°C 90% 2.3 mph SSW3.7 kmh SSW 2.3 mph3.7 kmh 30.21 in1023.0 mb - 0.00 in0.0 mm 0.00 in0.0 mm
09:00 AM 62.2°F16.8°C 59.0°F15.0°C 89% 3.5 mph SSW5.6 kmh SSW 3.5 mph5.6 kmh 30.21 in1023.0 mb - 0.00 in0.0 mm 0.00 in0.0 mm
09:10 AM 63.0°F17.2°C 59.7°F15.4°C 89% 2.3 mph SSE3.7 kmh SSE 3.5 mph5.6 kmh 30.21 in1023.0 mb - 0.00 in0.0 mm 0.00 in0.0 mm
09:20 AM 63.4°F17.4°C 59.5°F15.3°C 87% 2.3 mph SSE3.7 kmh SSE 2.3 mph3.7 kmh 30.21 in1023.0 mb - 0.00 in0.0 mm 0.00 in0.0 mm
09:30 AM 63.7°F17.6°C 59.1°F15.1°C 85% 2.3 mph S3.7 kmh S 3.5 mph5.6 kmh 30.21 in1023.0 mb - 0.00 in0.0 mm 0.00 in0.0 mm
09:40 AM 65.0°F18.3°C 60.4°F15.8°C 85% 2.3 mph S3.7 kmh S 3.5 mph5.6 kmh 30.21 in1023.0 mb - 0.00 in0.0 mm 0.00 in0.0 mm
09:50 AM 66.0°F18.9°C 60.7°F15.9°C 83% 3.5 mph S5.6 kmh S 4.6 mph7.4 kmh 30.21 in1023.0 mb - 0.00 in0.0 mm 0.00 in0.0 mm
11:10 AM 68.0°F20.0°C 59.8°F15.4°C 75% 2.3 mph SSW3.7 kmh SSW 3.5 mph5.6 kmh 30.21 in1023.0 mb - 0.00 in0.0 mm 0.00 in0.0 mm
11:20 AM 69.0°F20.6°C 60.7°F15.9°C 75% 1.2 mph S1.9 kmh S 2.3 mph3.7 kmh 30.21 in1023.0 mb - 0.00 in0.0 mm 0.00 in0.0 mm
11:30 AM 69.6°F20.9°C 61.3°F16.3°C 75% 2.3 mph S3.7 kmh S 2.3 mph3.7 kmh 30.21 in1023.0 mb - 0.00 in0.0 mm 0.00 in0.0 mm
11:40 AM 69.8°F21.0°C 60.8°F16.0°C 73% 4.6 mph SSE7.4 kmh SSE 5.8 mph9.3 kmh 30.21 in1023.0 mb - 0.00 in0.0 mm 0.00 in0.0 mm
11:50 AM 70.7°F21.5°C 61.2°F16.2°C 72% 2.3 mph S3.7 kmh S 3.5 mph5.6 kmh 30.21 in1023.0 mb - 0.00 in0.0 mm 0.00 in0.0 mm
12:00 PM 72.0°F22.2°C 61.6°F16.4°C 70% 3.5 mph S5.6 kmh S 4.6 mph7.4 kmh 30.21 in1023.0 mb - 0.00 in0.0 mm 0.00 in0.0 mm
12:10 PM 72.3°F22.4°C 62.0°F16.7°C 70% 3.5 mph SE5.6 kmh SE 3.5 mph5.6 kmh 30.18 in1022.0 mb - 0.00 in0.0 mm 0.00 in0.0 mm
12:20 PM 73.6°F23.1°C 62.4°F16.9°C 68% 3.5 mph S5.6 kmh S 4.6 mph7.4 kmh 30.18 in1022.0 mb - 0.00 in0.0 mm 0.00 in0.0 mm
12:30 PM 72.9°F22.7°C 61.7°F16.5°C 68% 2.3 mph SSE3.7 kmh SSE 4.6 mph7.4 kmh 30.18 in1022.0 mb - 0.00 in0.0 mm 0.00 in0.0 mm
12:40 PM 72.9°F22.7°C 61.7°F16.5°C 68% 4.6 mph SE7.4 kmh SE 5.8 mph9.3 kmh 30.18 in1022.0 mb - 0.00 in0.0 mm 0.00 in0.0 mm
12:50 PM 73.1°F22.8°C 61.9°F16.6°C 68% 2.3 mph S3.7 kmh S 3.5 mph5.6 kmh 30.18 in1022.0 mb - 0.00 in0.0 mm 0.00 in0.0 mm
01:00 PM 73.7°F23.2°C 62.5°F16.9°C 68% 3.5 mph SE5.6 kmh SE 4.6 mph7.4 kmh 30.18 in1022.0 mb - 0.00 in0.0 mm 0.00 in0.0 mm
01:10 PM 73.5°F23.1°C 61.5°F16.4°C 66% 3.5 mph ESE5.6 kmh ESE 5.8 mph9.3 kmh 30.18 in1022.0 mb - 0.00 in0.0 mm 0.00 in0.0 mm
01:20 PM 73.9°F23.3°C 62.3°F16.8°C 67% 3.5 mph SSE5.6 kmh SSE 3.5 mph5.6 kmh 30.18 in1022.0 mb - 0.00 in0.0 mm 0.00 in0.0 mm
01:30 PM 73.8°F23.2°C 61.3°F16.3°C 65% 4.6 mph S7.4 kmh S 5.8 mph9.3 kmh 30.18 in1022.0 mb - 0.00 in0.0 mm 0.00 in0.0 mm
01:40 PM 72.7°F22.6°C 60.7°F15.9°C 66% 3.5 mph S5.6 kmh S 5.8 mph9.3 kmh 30.18 in1022.0 mb - 0.00 in0.0 mm 0.00 in0.0 mm
01:50 PM 71.6°F22.0°C 60.5°F15.8°C 68% 3.5 mph S5.6 kmh S 4.6 mph7.4 kmh 30.18 in1022.0 mb - 0.00 in0.0 mm 0.00 in0.0 mm
02:00 PM 70.8°F21.6°C 60.1°F15.6°C 69% 3.5 mph SSE5.6 kmh SSE 6.9 mph11.1 kmh 30.18 in1022.0 mb - 0.00 in0.0 mm 0.00 in0.0 mm
02:10 PM 71.4°F21.9°C 60.7°F15.9°C 69% 3.5 mph SSE5.6 kmh SSE 6.9 mph11.1 kmh 30.18 in1022.0 mb - 0.00 in0.0 mm 0.00 in0.0 mm
02:20 PM 70.8°F21.6°C 60.6°F15.9°C 70% 3.5 mph S5.6 kmh S 4.6 mph7.4 kmh 30.18 in1022.0 mb - 0.00 in0.0 mm 0.00 in0.0 mm
02:30 PM 72.1°F22.3°C 60.9°F16.1°C 68% 5.8 mph SSE9.3 kmh SSE 6.9 mph11.1 kmh 30.18 in1022.0 mb - 0.00 in0.0 mm 0.00 in0.0 mm
02:40 PM 75.0°F23.9°C 63.3°F17.4°C 67% 3.5 mph SE5.6 kmh SE 5.8 mph9.3 kmh 30.18 in1022.0 mb - 0.00 in0.0 mm 0.00 in0.0 mm
02:50 PM 76.5°F24.7°C 62.9°F17.2°C 63% 4.6 mph SE7.4 kmh SE 5.8 mph9.3 kmh 30.18 in1022.0 mb - 0.00 in0.0 mm 0.00 in0.0 mm
03:00 PM 77.5°F25.3°C 62.6°F17.0°C 60% 4.6 mph SE7.4 kmh SE 6.9 mph11.1 kmh 30.18 in1022.0 mb - 0.00 in0.0 mm 0.00 in0.0 mm
03:10 PM 79.0°F26.1°C 62.9°F17.2°C 58% 5.8 mph SE9.3 kmh SE 6.9 mph11.1 kmh 30.18 in1022.0 mb - 0.00 in0.0 mm 0.00 in0.0 mm
03:20 PM 79.9°F26.6°C 63.3°F17.4°C 57% 4.6 mph S7.4 kmh S 6.9 mph11.1 kmh 30.18 in1022.0 mb - 0.00 in0.0 mm 0.00 in0.0 mm
03:30 PM 79.3°F26.3°C 62.8°F17.1°C 57% 3.5 mph SSE5.6 kmh SSE 4.6 mph7.4 kmh 30.18 in1022.0 mb - 0.00 in0.0 mm 0.00 in0.0 mm
03:40 PM 78.0°F25.6°C 61.6°F16.4°C 57% 4.6 mph SE7.4 kmh SE 6.9 mph11.1 kmh 30.18 in1022.0 mb - 0.00 in0.0 mm 0.00 in0.0 mm
03:50 PM 77.4°F25.2°C 61.9°F16.6°C 59% 3.5 mph SSE5.6 kmh SSE 5.8 mph9.3 kmh 30.18 in1022.0 mb - 0.00 in0.0 mm 0.00 in0.0 mm
04:00 PM 76.6°F24.8°C 61.7°F16.5°C 60% 4.6 mph S7.4 kmh S 4.6 mph7.4 kmh 30.18 in1022.0 mb - 0.00 in0.0 mm 0.00 in0.0 mm
04:10 PM 76.8°F24.9°C 62.3°F16.8°C 61% 3.5 mph S5.6 kmh S 5.8 mph9.3 kmh 30.18 in1022.0 mb - 0.00 in0.0 mm 0.00 in0.0 mm
04:20 PM 75.3°F24.1°C 60.9°F16.1°C 61% 4.6 mph SE7.4 kmh SE 5.8 mph9.3 kmh 30.18 in1022.0 mb - 0.00 in0.0 mm 0.00 in0.0 mm
04:30 PM 73.8°F23.2°C 60.4°F15.8°C 63% 3.5 mph S5.6 kmh S 6.9 mph11.1 kmh 30.18 in1022.0 mb - 0.00 in0.0 mm 0.00 in0.0 mm
04:40 PM 72.6°F22.6°C 60.6°F15.9°C 66% 3.5 mph SSE5.6 kmh SSE 4.6 mph7.4 kmh 30.18 in1022.0 mb - 0.00 in0.0 mm 0.00 in0.0 mm
04:50 PM 73.4°F23.0°C 60.9°F16.1°C 65% 3.5 mph SW5.6 kmh SW 4.6 mph7.4 kmh 30.18 in1022.0 mb - 0.00 in0.0 mm 0.00 in0.0 mm
05:00 PM 73.7°F23.2°C 60.7°F15.9°C 64% 3.5 mph SE5.6 kmh SE 3.5 mph5.6 kmh 30.18 in1022.0 mb - 0.00 in0.0 mm 0.00 in0.0 mm
05:10 PM 76.5°F24.7°C 63.0°F17.2°C 63% 3.5 mph SSE5.6 kmh SSE 4.6 mph7.4 kmh 30.18 in1022.0 mb - 0.00 in0.0 mm 0.00 in0.0 mm
05:20 PM 76.8°F24.9°C 62.3°F16.8°C 61% 3.5 mph SSE5.6 kmh SSE 4.6 mph7.4 kmh 30.18 in1022.0 mb - 0.00 in0.0 mm 0.00 in0.0 mm
05:30 PM 76.6°F24.8°C 62.2°F16.8°C 61% 4.6 mph SE7.4 kmh SE 4.6 mph7.4 kmh 30.18 in1022.0 mb - 0.00 in0.0 mm 0.00 in0.0 mm
05:40 PM 76.3°F24.6°C 61.4°F16.3°C 60% 4.6 mph SE7.4 kmh SE 5.8 mph9.3 kmh 30.18 in1022.0 mb - 0.00 in0.0 mm 0.00 in0.0 mm
05:50 PM 75.0°F23.9°C 60.6°F15.9°C 61% 4.6 mph SE7.4 kmh SE 5.8 mph9.3 kmh 30.18 in1022.0 mb - 0.00 in0.0 mm 0.00 in0.0 mm
06:00 PM 72.7°F22.6°C 59.8°F15.4°C 64% 4.6 mph SE7.4 kmh SE 5.8 mph9.3 kmh 30.18 in1022.0 mb - 0.00 in0.0 mm 0.00 in0.0 mm
06:10 PM 72.0°F22.2°C 60.0°F15.6°C 66% 3.5 mph SSE5.6 kmh SSE 4.6 mph7.4 kmh 30.18 in1022.0 mb - 0.00 in0.0 mm 0.00 in0.0 mm
06:20 PM 69.1°F20.6°C 58.1°F14.5°C 68% 3.5 mph E5.6 kmh E 4.6 mph7.4 kmh 30.18 in1022.0 mb - 0.00 in0.0 mm 0.00 in0.0 mm
06:30 PM 68.0°F20.0°C 58.2°F14.6°C 71% 3.5 mph SE5.6 kmh SE 3.5 mph5.6 kmh 30.18 in1022.0 mb - 0.00 in0.0 mm 0.00 in0.0 mm
06:40 PM 66.5°F19.2°C 57.2°F14.0°C 72% 3.5 mph SE5.6 kmh SE 4.6 mph7.4 kmh 30.18 in1022.0 mb - 0.00 in0.0 mm 0.00 in0.0 mm
06:50 PM 65.1°F18.4°C 56.6°F13.7°C 74% 3.5 mph ESE5.6 kmh ESE 3.5 mph5.6 kmh 30.18 in1022.0 mb - 0.00 in0.0 mm 0.00 in0.0 mm
07:00 PM 64.6°F18.1°C 56.8°F13.8°C 76% 4.6 mph SE7.4 kmh SE 5.8 mph9.3 kmh 30.18 in1022.0 mb - 0.00 in0.0 mm 0.00 in0.0 mm
07:10 PM 64.4°F18.0°C 57.0°F13.9°C 77% 3.5 mph E5.6 kmh E 3.5 mph5.6 kmh 30.18 in1022.0 mb - 0.00 in0.0 mm 0.00 in0.0 mm
07:20 PM 64.2°F17.9°C 57.2°F14.0°C 78% 5.8 mph SE9.3 kmh SE 6.9 mph11.1 kmh 30.18 in1022.0 mb - 0.00 in0.0 mm 0.00 in0.0 mm
07:30 PM 63.7°F17.6°C 57.0°F13.9°C 79% 4.6 mph SE7.4 kmh SE 4.6 mph7.4 kmh 30.18 in1022.0 mb - 0.00 in0.0 mm 0.00 in0.0 mm
07:40 PM 63.3°F17.4°C 56.7°F13.7°C 79% 2.3 mph E3.7 kmh E 3.5 mph5.6 kmh 30.18 in1022.0 mb - 0.00 in0.0 mm 0.00 in0.0 mm
07:50 PM 63.0°F17.2°C 56.7°F13.7°C 80% 3.5 mph ENE5.6 kmh ENE 4.6 mph7.4 kmh 30.18 in1022.0 mb - 0.00 in0.0 mm 0.00 in0.0 mm
08:00 PM 62.6°F17.0°C 56.3°F13.5°C 80% 3.5 mph E5.6 kmh E 4.6 mph7.4 kmh 30.18 in1022.0 mb - 0.00 in0.0 mm 0.00 in0.0 mm
08:10 PM 62.2°F16.8°C 56.3°F13.5°C 81% 3.5 mph E5.6 kmh E 4.6 mph7.4 kmh 30.18 in1022.0 mb - 0.00 in0.0 mm 0.00 in0.0 mm
08:20 PM 61.9°F16.6°C 56.0°F13.3°C 81% 2.3 mph E3.7 kmh E 3.5 mph5.6 kmh 30.18 in1022.0 mb - 0.00 in0.0 mm 0.00 in0.0 mm
08:30 PM 61.8°F16.6°C 56.3°F13.5°C 82% 3.5 mph E5.6 kmh E 3.5 mph5.6 kmh 30.18 in1022.0 mb - 0.00 in0.0 mm 0.00 in0.0 mm
08:40 PM 61.6°F16.4°C 56.1°F13.4°C 82% 3.5 mph E5.6 kmh E 3.5 mph5.6 kmh 30.18 in1022.0 mb - 0.00 in0.0 mm 0.00 in0.0 mm
08:50 PM 61.3°F16.3°C 56.1°F13.4°C 83% 3.5 mph E5.6 kmh E 4.6 mph7.4 kmh 30.18 in1022.0 mb - 0.00 in0.0 mm 0.00 in0.0 mm
09:00 PM 61.2°F16.2°C 56.0°F13.3°C 83% 3.5 mph E5.6 kmh E 4.6 mph7.4 kmh 30.18 in1022.0 mb - 0.00 in0.0 mm 0.00 in0.0 mm
09:10 PM 61.1°F16.2°C 55.9°F13.3°C 83% 2.3 mph E3.7 kmh E 3.5 mph5.6 kmh 30.18 in1022.0 mb - 0.00 in0.0 mm 0.00 in0.0 mm
09:20 PM 61.0°F16.1°C 56.1°F13.4°C 84% 2.3 mph E3.7 kmh E 3.5 mph5.6 kmh 30.18 in1022.0 mb - 0.00 in0.0 mm 0.00 in0.0 mm
09:30 PM 61.0°F16.1°C 56.1°F13.4°C 84% 2.3 mph NE3.7 kmh NE 3.5 mph5.6 kmh 30.18 in1022.0 mb - 0.00 in0.0 mm 0.00 in0.0 mm
09:40 PM 60.6°F15.9°C 56.1°F13.4°C 85% 2.3 mph E3.7 kmh E 3.5 mph5.6 kmh 30.18 in1022.0 mb - 0.00 in0.0 mm 0.00 in0.0 mm
09:50 PM 60.6°F15.9°C 56.4°F13.6°C 86% 2.3 mph E3.7 kmh E 2.3 mph3.7 kmh 30.21 in1023.0 mb - 0.00 in0.0 mm 0.00 in0.0 mm
10:00 PM 60.4°F15.8°C 56.2°F13.4°C 86% 3.5 mph ENE5.6 kmh ENE 3.5 mph5.6 kmh 30.21 in1023.0 mb - 0.00 in0.0 mm 0.00 in0.0 mm
10:10 PM 60.1°F15.6°C 56.2°F13.4°C 87% 3.5 mph ENE5.6 kmh ENE 4.6 mph7.4 kmh 30.21 in1023.0 mb - 0.00 in0.0 mm 0.00 in0.0 mm
10:20 PM 59.7°F15.4°C 56.2°F13.4°C 88% 2.3 mph NE3.7 kmh NE 3.5 mph5.6 kmh 30.21 in1023.0 mb - 0.00 in0.0 mm 0.00 in0.0 mm
10:30 PM 59.5°F15.3°C 56.0°F13.3°C 88% 2.3 mph NE3.7 kmh NE 2.3 mph3.7 kmh 30.21 in1023.0 mb - 0.00 in0.0 mm 0.00 in0.0 mm
10:40 PM 59.5°F15.3°C 55.9°F13.3°C 88% 2.3 mph E3.7 kmh E 2.3 mph3.7 kmh 30.18 in1022.0 mb - 0.00 in0.0 mm 0.00 in0.0 mm
10:50 PM 59.4°F15.2°C 56.1°F13.4°C 89% 2.3 mph E3.7 kmh E 2.3 mph3.7 kmh 30.21 in1023.0 mb - 0.00 in0.0 mm 0.00 in0.0 mm
11:00 PM 59.4°F15.2°C 56.1°F13.4°C 89% 1.2 mph ENE1.9 kmh ENE 2.3 mph3.7 kmh 30.21 in1023.0 mb - 0.00 in0.0 mm 0.00 in0.0 mm
11:10 PM 59.4°F15.2°C 56.1°F13.4°C 89% 2.3 mph NE3.7 kmh NE 2.3 mph3.7 kmh 30.18 in1022.0 mb - 0.00 in0.0 mm 0.00 in0.0 mm
11:20 PM 59.2°F15.1°C 55.9°F13.3°C 89% 3.5 mph NE5.6 kmh NE 3.5 mph5.6 kmh 30.21 in1023.0 mb - 0.00 in0.0 mm 0.00 in0.0 mm
11:30 PM 59.2°F15.1°C 56.2°F13.4°C 90% 2.3 mph NNE3.7 kmh NNE 2.3 mph3.7 kmh 30.21 in1023.0 mb - 0.00 in0.0 mm 0.00 in0.0 mm
11:40 PM 59.0°F15.0°C 56.1°F13.4°C 90% 2.3 mph NE3.7 kmh NE 3.5 mph5.6 kmh 30.18 in1022.0 mb - 0.00 in0.0 mm 0.00 in0.0 mm
11:50 PM 59.2°F15.1°C 56.2°F13.4°C 90% 2.3 mph N3.7 kmh N 2.3 mph3.7 kmh 30.18 in1022.0 mb - 0.00 in0.0 mm 0.00 in0.0 mm